createdAt,value
2022-08-08T00:00:55.399Z,31.66
2022-08-08T00:00:56.013Z,31.70
2022-08-08T00:01:00.329Z,31.70
2022-08-08T00:02:03.749Z,31.61
2022-08-08T00:02:31.471Z,31.59
2022-08-08T00:02:55.704Z,31.62
2022-08-08T00:03:31.559Z,31.63
2022-08-08T00:04:25.422Z,31.60
2022-08-08T00:04:49.141Z,31.65
2022-08-08T00:05:12.869Z,31.73
2022-08-08T00:05:43.972Z,31.71
2022-08-08T00:06:28.565Z,31.70
2022-08-08T00:06:55.296Z,31.89
2022-08-08T00:07:19.014Z,31.75
2022-08-08T00:07:33.751Z,31.76
2022-08-08T00:07:58.328Z,31.78
2022-08-08T00:08:49.225Z,31.86
2022-08-08T00:09:16.035Z,31.85
2022-08-08T00:09:38.393Z,31.89
2022-08-08T00:10:12.538Z,31.86
2022-08-08T00:10:35.760Z,31.85
2022-08-08T00:10:55.350Z,31.85
2022-08-08T00:11:17.656Z,31.85
2022-08-08T00:11:47.001Z,31.86
2022-08-08T00:12:09.475Z,31.84
2022-08-08T00:12:56.397Z,31.81
2022-08-08T00:14:17.393Z,31.81
2022-08-08T00:14:57.176Z,31.83
2022-08-08T00:15:24.439Z,31.90
2022-08-08T00:16:18.540Z,31.97
2022-08-08T00:16:54.845Z,31.91
2022-08-08T00:17:35.332Z,32.04
2022-08-08T00:18:04.652Z,31.97
2022-08-08T00:18:42.544Z,31.98
2022-08-08T00:19:02.088Z,31.92
2022-08-08T00:19:23.521Z,32.00
2022-08-08T00:19:40.990Z,32.03
2022-08-08T00:20:05.793Z,32.00
2022-08-08T00:20:31.557Z,32.02
2022-08-08T00:20:52.221Z,32.02
2022-08-08T00:21:05.962Z,32.00
2022-08-08T00:21:24.632Z,31.99
2022-08-08T00:21:43.826Z,31.97
2022-08-08T00:22:03.912Z,32.03
2022-08-08T00:22:21.025Z,32.03
2022-08-08T00:22:44.387Z,32.03
2022-08-08T00:23:10.141Z,32.04
2022-08-08T00:23:43.192Z,32.02
2022-08-08T00:24:03.143Z,32.02
2022-08-08T00:24:18.604Z,32.08
2022-08-08T00:24:39.380Z,32.09
2022-08-08T00:24:58.100Z,32.08
2022-08-08T00:25:22.283Z,32.08
2022-08-08T00:25:51.233Z,32.08
2022-08-08T00:26:05.041Z,32.08
2022-08-08T00:26:29.694Z,32.01
2022-08-08T00:26:45.098Z,32.09
2022-08-08T00:27:06.107Z,32.09
2022-08-08T00:27:20.054Z,32.07
2022-08-08T00:27:37.810Z,32.10
2022-08-08T00:27:56.711Z,32.10
2022-08-08T00:28:34.170Z,32.09
2022-08-08T00:28:48.634Z,32.12
2022-08-08T00:29:15.081Z,32.12
2022-08-08T00:29:47.076Z,32.11
2022-08-08T00:30:00.813Z,32.12
2022-08-08T00:30:15.569Z,32.14
2022-08-08T00:30:36.235Z,32.14
2022-08-08T00:31:00.541Z,32.12
2022-08-08T00:32:28.389Z,32.13
2022-08-08T00:32:32.595Z,32.12
2022-08-08T00:32:56.644Z,32.15
2022-08-08T00:33:16.030Z,32.16
2022-08-08T00:34:17.507Z,32.19
2022-08-08T00:34:38.031Z,32.17
2022-08-08T00:35:25.527Z,32.16
2022-08-08T00:35:52.495Z,32.23
2022-08-08T00:36:27.059Z,32.21
2022-08-08T00:36:51.797Z,32.24
2022-08-08T00:37:16.579Z,32.24
2022-08-08T00:37:57.193Z,32.30
2022-08-08T01:07:54.062Z,32.41
2022-08-08T01:08:21.017Z,32.41
2022-08-08T01:08:52.051Z,32.84
2022-08-08T01:09:42.547Z,32.82
2022-08-08T01:10:38.987Z,32.77
2022-08-08T01:11:28.927Z,32.85
2022-08-08T01:12:30.344Z,32.90
2022-08-08T01:12:55.134Z,32.90
2022-08-08T01:13:44.481Z,32.95
2022-08-08T01:32:13.423Z,32.72
2022-08-08T01:32:36.792Z,32.72
2022-08-08T01:33:24.017Z,33.06
2022-08-08T01:34:08.152Z,33.23
2022-08-08T01:34:33.992Z,33.15
2022-08-08T01:35:12.479Z,33.10
2022-08-08T01:35:38.469Z,33.09
2022-08-08T01:36:27.065Z,33.05
2022-08-08T01:36:48.645Z,33.10
2022-08-08T01:37:58.381Z,33.05
2022-08-08T01:38:29.262Z,33.07
2022-08-08T01:39:24.101Z,33.18
2022-08-08T01:40:06.039Z,33.16
2022-08-08T01:41:15.917Z,33.17
2022-08-08T01:41:34.409Z,33.17
2022-08-08T01:41:59.887Z,33.21
2022-08-08T01:42:19.184Z,33.22
2022-08-08T01:42:53.868Z,33.25
2022-08-08T01:43:34.587Z,33.26
2022-08-08T01:44:03.725Z,33.29
2022-08-08T01:44:22.226Z,33.25
2022-08-08T01:44:59.798Z,33.23
2022-08-08T01:45:31.274Z,33.20
2022-08-08T01:46:21.903Z,33.22
2022-08-08T01:46:52.168Z,33.24
2022-08-08T01:48:14.588Z,33.22
2022-08-08T01:48:16.900Z,33.30
2022-08-08T01:49:02.191Z,33.32
2022-08-08T01:49:22.787Z,33.37
2022-08-08T01:50:06.918Z,33.33
2022-08-08T01:50:34.156Z,33.29
2022-08-08T01:51:31.696Z,33.33
2022-08-08T01:52:43.598Z,33.32
2022-08-08T01:55:15.083Z,33.43
2022-08-08T01:55:15.539Z,33.52
2022-08-08T02:16:42.879Z,33.30
2022-08-08T02:17:20.694Z,33.30
2022-08-08T02:17:42.942Z,33.54
2022-08-08T02:18:04.326Z,33.48
2022-08-08T02:18:34.853Z,33.71
2022-08-08T02:18:58.785Z,33.68
2022-08-08T02:19:57.056Z,33.65
2022-08-08T02:21:02.101Z,33.58
2022-08-08T02:21:45.873Z,33.51
2022-08-08T02:22:34.227Z,33.50
2022-08-08T02:23:15.965Z,33.54
2022-08-08T02:23:35.327Z,33.54
2022-08-08T02:24:03.373Z,33.51
2022-08-08T02:24:29.071Z,33.49
2022-08-08T02:24:46.397Z,33.41
2022-08-08T02:25:19.371Z,33.46
2022-08-08T02:25:56.331Z,33.42
2022-08-08T02:26:23.786Z,33.46
2022-08-08T02:26:41.913Z,33.51
2022-08-08T02:27:17.451Z,33.55
2022-08-08T02:27:57.913Z,33.42
2022-08-08T02:28:35.331Z,33.49
2022-08-08T02:29:18.971Z,33.47
2022-08-08T02:29:57.976Z,33.55
2022-08-08T02:30:13.176Z,33.48
2022-08-08T02:30:49.858Z,33.57
2022-08-08T02:31:31.255Z,33.59
2022-08-08T02:32:27.243Z,33.50
2022-08-08T02:33:14.672Z,33.52
2022-08-08T02:33:41.680Z,33.66
2022-08-08T02:34:27.589Z,33.48
2022-08-08T02:35:11.277Z,33.62
2022-08-08T02:36:03.609Z,33.67
2022-08-08T02:36:34.262Z,33.70
2022-08-08T02:37:10.002Z,33.63
2022-08-08T02:38:25.248Z,33.61
2022-08-08T02:39:41.866Z,33.58
2022-08-08T02:39:58.482Z,33.59
2022-08-08T02:40:12.765Z,33.58
2022-08-08T02:40:50.322Z,33.59
2022-08-08T02:42:04.152Z,33.50
2022-08-08T02:42:18.016Z,33.46
2022-08-08T02:43:00.594Z,33.38
2022-08-08T02:44:38.479Z,33.51
2022-08-08T02:44:38.862Z,33.51
2022-08-08T02:45:26.509Z,33.52
2022-08-08T02:45:56.694Z,33.64
2022-08-08T02:46:29.887Z,33.60
2022-08-08T02:47:04.304Z,33.57
2022-08-08T02:47:23.325Z,33.58
2022-08-08T02:47:57.704Z,33.62
2022-08-08T02:48:45.265Z,33.63
2022-08-08T02:49:51.091Z,33.59
2022-08-08T02:50:29.620Z,33.65
2022-08-08T02:51:11.734Z,33.78
2022-08-08T02:52:31.257Z,33.67
2022-08-08T02:52:56.454Z,33.69
2022-08-08T02:53:21.182Z,33.62
2022-08-08T02:53:59.585Z,33.66
2022-08-08T02:54:17.266Z,33.64
2022-08-08T02:54:52.852Z,33.70
2022-08-08T02:55:36.504Z,33.69
2022-08-08T02:56:15.319Z,33.68
2022-08-08T02:56:52.146Z,33.63
2022-08-08T02:57:17.413Z,33.79
2022-08-08T03:01:47.320Z,33.93
2022-08-08T03:02:36.874Z,33.93
2022-08-08T03:03:46.065Z,34.44
2022-08-08T03:05:02.558Z,34.67
2022-08-08T03:05:02.647Z,34.87
2022-08-08T03:05:45.168Z,34.58
2022-08-08T03:06:24.242Z,34.38
2022-08-08T03:07:41.123Z,34.23
2022-08-08T03:08:32.039Z,33.93
2022-08-08T03:09:03.399Z,34.07
2022-08-08T03:09:42.720Z,34.17
2022-08-08T03:10:07.856Z,34.09
2022-08-08T03:10:44.730Z,34.01
2022-08-08T03:11:47.391Z,33.97
2022-08-08T03:12:36.749Z,34.20
2022-08-08T03:15:53.618Z,33.96
2022-08-08T03:15:57.499Z,33.81
2022-08-08T03:15:58.110Z,33.82
2022-08-08T03:16:04.920Z,33.81
2022-08-08T03:16:43.352Z,33.84
2022-08-08T03:17:06.882Z,33.91
2022-08-08T03:17:39.916Z,33.89
2022-08-08T03:18:31.282Z,33.86
2022-08-08T03:18:53.027Z,33.83
2022-08-08T03:19:36.588Z,33.90
2022-08-08T03:20:08.155Z,33.95
2022-08-08T03:20:23.221Z,34.09
2022-08-08T03:20:51.882Z,34.19
2022-08-08T03:21:09.954Z,34.17
2022-08-08T03:21:54.598Z,34.04
2022-08-08T03:22:00.202Z,34.10
2022-08-08T03:22:38.034Z,34.01
2022-08-08T03:22:57.164Z,34.01
2022-08-08T03:23:14.474Z,33.94
2022-08-08T03:23:56.284Z,33.97
2022-08-08T03:24:03.810Z,34.11
2022-08-08T03:24:18.042Z,34.07
2022-08-08T03:24:32.907Z,34.06
2022-08-08T03:24:46.436Z,34.02
2022-08-08T03:25:04.489Z,33.97
2022-08-08T03:25:36.193Z,33.92
2022-08-08T03:25:50.859Z,33.99
2022-08-08T03:26:03.998Z,33.93
2022-08-08T03:26:23.033Z,33.91
2022-08-08T03:26:42.032Z,33.92
2022-08-08T03:27:13.482Z,33.92
2022-08-08T03:27:27.691Z,33.98
2022-08-08T03:28:01.996Z,33.97
2022-08-08T03:28:43.058Z,33.92
2022-08-08T03:28:58.900Z,33.90
2022-08-08T03:29:16.770Z,33.94
2022-08-08T03:29:55.257Z,33.89
2022-08-08T03:30:09.857Z,33.92
2022-08-08T03:30:28.258Z,33.91
2022-08-08T03:30:49.144Z,34.04
2022-08-08T03:32:05.874Z,34.02
2022-08-08T03:32:37.872Z,34.13
2022-08-08T03:33:54.969Z,34.30
2022-08-08T03:33:56.354Z,34.39
2022-08-08T03:34:14.289Z,34.17
2022-08-08T03:34:27.291Z,34.07
2022-08-08T03:34:40.448Z,34.07
2022-08-08T03:34:53.382Z,34.03
2022-08-08T03:35:06.623Z,33.97
2022-08-08T03:35:23.070Z,33.92
2022-08-08T03:35:40.089Z,33.93
2022-08-08T03:35:52.946Z,34.07
2022-08-08T03:36:10.438Z,34.14
2022-08-08T03:36:27.872Z,34.18
2022-08-08T03:36:43.582Z,34.25
2022-08-08T03:36:59.456Z,34.18
2022-08-08T03:37:20.131Z,34.14
2022-08-08T03:38:52.945Z,34.07
2022-08-08T03:38:56.323Z,34.06
2022-08-08T03:39:14.246Z,33.99
2022-08-08T03:39:28.359Z,34.08
2022-08-08T03:40:00.056Z,34.09
2022-08-08T03:40:29.745Z,34.04
2022-08-08T03:40:52.533Z,33.97
2022-08-08T03:41:22.892Z,34.01
2022-08-08T03:42:13.092Z,33.99
2022-08-08T03:42:30.460Z,33.89
2022-08-08T03:42:45.713Z,33.93
2022-08-08T03:43:15.686Z,34.00
2022-08-08T03:43:38.302Z,33.93
2022-08-08T03:43:59.500Z,33.95
2022-08-08T03:44:12.897Z,33.90
2022-08-08T03:44:32.633Z,33.89
2022-08-08T03:44:51.978Z,33.89
2022-08-08T03:46:05.095Z,33.83
2022-08-08T03:46:05.745Z,33.89
2022-08-08T03:46:21.701Z,33.91
2022-08-08T03:46:48.609Z,34.16
2022-08-08T03:47:13.938Z,34.38
2022-08-08T03:47:45.512Z,34.38
2022-08-08T03:47:59.502Z,34.33
2022-08-08T03:48:21.338Z,34.22
2022-08-08T03:49:54.861Z,34.13
2022-08-08T03:49:57.740Z,34.26
2022-08-08T03:50:02.493Z,34.18
2022-08-08T03:50:19.993Z,34.41
2022-08-08T03:50:34.327Z,34.49
2022-08-08T03:50:48.561Z,34.44
2022-08-08T03:51:01.491Z,34.44
2022-08-08T03:51:14.347Z,34.36
2022-08-08T03:51:47.115Z,34.29
2022-08-08T03:52:00.348Z,34.38
2022-08-08T03:52:26.730Z,34.65
2022-08-08T03:52:44.541Z,34.79
2022-08-08T03:53:03.481Z,34.64
2022-08-08T03:53:24.254Z,34.69
2022-08-08T03:53:52.209Z,34.64
2022-08-08T03:54:09.436Z,34.60
2022-08-08T03:54:41.094Z,34.70
2022-08-08T03:55:10.196Z,34.70
2022-08-08T03:55:56.597Z,34.67
2022-08-08T03:56:04.415Z,34.78
2022-08-08T03:56:31.239Z,34.78
2022-08-08T03:56:46.446Z,34.79
2022-08-08T03:56:59.516Z,34.65
2022-08-08T03:58:32.274Z,34.72
2022-08-08T03:58:32.449Z,34.77
2022-08-08T03:58:38.415Z,34.82
2022-08-08T03:58:52.993Z,34.79
2022-08-08T03:59:05.932Z,34.74
2022-08-08T03:59:22.740Z,34.88
2022-08-08T04:00:02.898Z,34.88
2022-08-08T04:00:11.762Z,34.91
2022-08-08T04:00:26.620Z,34.75
2022-08-08T04:00:53.907Z,34.73
2022-08-08T04:01:23.372Z,34.66
2022-08-08T04:02:13.260Z,34.70
2022-08-08T04:02:33.346Z,34.64
2022-08-08T04:02:56.566Z,34.70
2022-08-08T04:03:11.129Z,34.63
2022-08-08T04:03:25.975Z,34.67
2022-08-08T04:04:01.687Z,34.84
2022-08-08T04:04:19.443Z,35.15
2022-08-08T04:04:39.968Z,35.05
2022-08-08T04:04:55.625Z,35.17
2022-08-08T04:05:10.228Z,35.19
2022-08-08T04:05:29.901Z,35.09
2022-08-08T04:05:47.923Z,35.00
2022-08-08T04:06:06.903Z,34.91
2022-08-08T04:06:19.761Z,34.98
2022-08-08T04:06:32.860Z,35.09
2022-08-08T04:06:56.553Z,35.16
2022-08-08T04:07:09.446Z,35.26
2022-08-08T04:07:22.737Z,35.24
2022-08-08T04:07:39.483Z,35.29
2022-08-08T04:07:52.416Z,35.17
2022-08-08T04:08:06.920Z,35.06
2022-08-08T04:08:33.430Z,35.01
2022-08-08T04:08:47.630Z,34.91
2022-08-08T04:09:08.859Z,35.07
2022-08-08T04:09:23.907Z,35.00
2022-08-08T04:10:00.105Z,35.07
2022-08-08T04:10:11.453Z,34.97
2022-08-08T04:10:31.987Z,34.94
2022-08-08T04:10:49.106Z,35.09
2022-08-08T04:11:17.704Z,35.02
2022-08-08T04:11:57.864Z,34.79
2022-08-08T04:12:12.894Z,34.64
2022-08-08T04:12:29.101Z,34.56
2022-08-08T04:12:42.182Z,34.50
2022-08-08T04:12:55.453Z,34.44
2022-08-08T04:13:17.534Z,34.45
2022-08-08T04:13:32.765Z,34.58
2022-08-08T04:14:34.311Z,34.53
2022-08-08T04:14:37.121Z,34.70
2022-08-08T04:14:50.802Z,34.62
2022-08-08T04:15:05.568Z,34.50
2022-08-08T04:15:22.280Z,34.50
2022-08-08T04:15:38.875Z,34.60
2022-08-08T04:15:55.104Z,34.48
2022-08-08T04:16:18.575Z,34.49
2022-08-08T04:16:38.591Z,34.47
2022-08-08T04:16:53.762Z,34.44
2022-08-08T04:17:15.609Z,34.58
2022-08-08T04:17:46.052Z,34.54
2022-08-08T04:18:16.518Z,34.49
2022-08-08T04:18:30.177Z,34.54
2022-08-08T04:18:44.855Z,34.70
2022-08-08T04:19:01.848Z,34.87
2022-08-08T04:19:23.598Z,34.79
2022-08-08T04:19:39.018Z,34.81
2022-08-08T04:19:52.052Z,34.84
2022-08-08T04:20:05.703Z,34.78
2022-08-08T04:20:21.258Z,34.74
2022-08-08T04:20:49.867Z,34.72
2022-08-08T04:21:06.332Z,34.61
2022-08-08T04:21:23.017Z,34.60
2022-08-08T04:21:41.473Z,34.57
2022-08-08T04:21:58.822Z,34.46
2022-08-08T04:22:16.504Z,34.52
2022-08-08T04:22:30.421Z,34.55
2022-08-08T04:22:45.389Z,34.92
2022-08-08T04:23:07.129Z,34.61
2022-08-08T04:23:20.927Z,34.64
2022-08-08T04:24:12.165Z,34.67
2022-08-08T04:24:19.123Z,34.64
2022-08-08T04:24:40.248Z,34.55
2022-08-08T04:24:54.210Z,34.77
2022-08-08T04:25:09.118Z,34.90
2022-08-08T04:25:30.174Z,34.97
2022-08-08T04:25:45.915Z,35.15
2022-08-08T04:25:59.237Z,35.21
2022-08-08T04:26:12.102Z,35.30
2022-08-08T04:26:26.097Z,35.41
2022-08-08T04:26:45.345Z,35.39
2022-08-08T04:27:42.572Z,35.51
2022-08-08T04:28:03.091Z,35.40
2022-08-08T04:28:36.729Z,35.35
2022-08-08T04:28:49.330Z,35.32
2022-08-08T04:29:07.651Z,35.06
2022-08-08T04:29:24.470Z,35.11
2022-08-08T04:29:37.922Z,35.41
2022-08-08T04:29:55.289Z,35.37
2022-08-08T04:30:17.778Z,35.36
2022-08-08T04:30:36.419Z,35.49
2022-08-08T04:30:55.267Z,35.35
2022-08-08T04:31:10.564Z,35.21
2022-08-08T04:31:59.248Z,35.28
2022-08-08T04:32:30.908Z,35.20
2022-08-08T04:32:49.987Z,35.03
2022-08-08T04:33:03.875Z,34.92
2022-08-08T04:33:16.775Z,34.88
2022-08-08T04:33:29.624Z,34.83
2022-08-08T04:33:54.710Z,34.82
2022-08-08T04:34:08.461Z,34.85
2022-08-08T04:34:21.345Z,34.89
2022-08-08T04:34:42.774Z,34.94
2022-08-08T04:35:02.076Z,34.88
2022-08-08T04:35:14.939Z,34.83
2022-08-08T04:35:29.401Z,34.81
2022-08-08T04:35:51.098Z,34.88
2022-08-08T04:36:04.362Z,34.87
2022-08-08T04:36:17.367Z,34.92
2022-08-08T04:36:30.231Z,34.91
2022-08-08T04:36:43.965Z,34.92
2022-08-08T04:36:59.278Z,34.88
2022-08-08T04:37:13.896Z,34.81
2022-08-08T04:37:32.172Z,34.79
2022-08-08T04:37:45.595Z,34.77
2022-08-08T04:38:02.083Z,34.81
2022-08-08T04:38:21.476Z,34.79
2022-08-08T04:38:34.999Z,34.76
2022-08-08T04:38:57.292Z,34.81
2022-08-08T04:40:03.377Z,34.82
2022-08-08T04:40:06.449Z,34.87
2022-08-08T04:40:24.027Z,34.93
2022-08-08T04:40:38.812Z,35.10
2022-08-08T04:41:04.293Z,35.08
2022-08-08T04:41:21.447Z,35.00
2022-08-08T04:41:36.683Z,35.03
2022-08-08T04:41:49.767Z,35.02
2022-08-08T04:42:03.798Z,34.96
2022-08-08T04:42:17.129Z,34.89
2022-08-08T04:42:33.820Z,34.91
2022-08-08T04:42:57.021Z,34.96
2022-08-08T04:43:10.705Z,34.93
2022-08-08T04:43:32.034Z,35.01
2022-08-08T04:43:57.516Z,35.01
2022-08-08T04:44:10.576Z,34.98
2022-08-08T04:44:26.789Z,35.23
2022-08-08T04:44:40.013Z,34.99
2022-08-08T04:44:55.630Z,34.93
2022-08-08T04:45:08.977Z,34.95
2022-08-08T04:45:25.773Z,34.91
2022-08-08T04:45:38.735Z,35.00
2022-08-08T04:45:51.798Z,35.12
2022-08-08T04:46:05.847Z,35.22
2022-08-08T04:46:19.890Z,35.21
2022-08-08T04:46:33.868Z,35.29
2022-08-08T04:46:47.346Z,35.20
2022-08-08T04:47:05.311Z,35.25
2022-08-08T04:47:24.930Z,35.20
2022-08-08T04:47:43.387Z,35.29
2022-08-08T04:48:00.343Z,35.37
2022-08-08T04:48:14.913Z,35.51
2022-08-08T04:48:28.194Z,35.48
2022-08-08T04:48:43.775Z,35.63
2022-08-08T04:48:56.722Z,35.51
2022-08-08T04:49:11.271Z,35.52
2022-08-08T04:49:28.860Z,35.58
2022-08-08T04:49:58.977Z,35.83
2022-08-08T04:50:24.131Z,35.61
2022-08-08T04:50:46.035Z,35.77
2022-08-08T04:50:59.006Z,35.63
2022-08-08T04:51:23.654Z,35.88
2022-08-08T04:51:48.443Z,35.72
2022-08-08T04:52:10.483Z,35.95
2022-08-08T04:52:25.490Z,36.03
2022-08-08T04:52:48.666Z,36.24
2022-08-08T04:53:14.144Z,36.37
2022-08-08T04:54:36.130Z,36.43
2022-08-08T04:54:39.071Z,36.60
2022-08-08T04:54:50.508Z,36.46
2022-08-08T04:55:04.475Z,36.31
2022-08-08T04:55:18.909Z,36.24
2022-08-08T04:55:47.322Z,36.15
2022-08-08T04:56:05.422Z,36.22
2022-08-08T04:56:18.841Z,36.50
2022-08-08T04:56:31.927Z,36.55
2022-08-08T04:56:44.853Z,36.52
2022-08-08T04:56:57.810Z,36.57
2022-08-08T04:57:11.166Z,36.54
2022-08-08T04:57:24.051Z,36.48
2022-08-08T04:57:38.027Z,36.46
2022-08-08T04:57:51.219Z,36.48
2022-08-08T04:58:08.150Z,36.64
2022-08-08T04:58:23.665Z,36.47
2022-08-08T04:58:38.128Z,36.24
2022-08-08T04:58:51.184Z,36.09
2022-08-08T04:59:04.252Z,36.18
2022-08-08T04:59:17.164Z,36.06
2022-08-08T04:59:42.238Z,36.01
2022-08-08T04:59:55.572Z,36.16
2022-08-08T05:00:13.048Z,36.08
2022-08-08T05:00:32.642Z,36.06
2022-08-08T05:00:48.292Z,35.94
2022-08-08T05:01:09.104Z,36.00
2022-08-08T05:01:24.125Z,36.11
2022-08-08T05:01:49.006Z,36.03
2022-08-08T05:02:02.078Z,36.04
2022-08-08T05:02:15.006Z,35.90
2022-08-08T05:02:33.611Z,35.90
2022-08-08T05:02:46.855Z,35.88
2022-08-08T05:03:05.986Z,35.88
2022-08-08T05:04:09.492Z,35.92
2022-08-08T05:04:09.599Z,35.92
2022-08-08T05:04:25.650Z,36.03
2022-08-08T05:04:41.823Z,36.12
2022-08-08T05:04:59.465Z,36.01
2022-08-08T05:05:19.946Z,36.03
2022-08-08T05:05:45.764Z,36.21
2022-08-08T05:05:58.623Z,36.06
2022-08-08T05:06:25.370Z,36.05
2022-08-08T05:06:39.008Z,35.95
2022-08-08T05:06:52.772Z,35.97
2022-08-08T05:07:05.762Z,35.98
2022-08-08T05:07:18.874Z,35.96
2022-08-08T05:07:37.936Z,36.03
2022-08-08T05:07:56.640Z,36.18
2022-08-08T05:08:12.745Z,36.18
2022-08-08T05:08:26.923Z,36.16
2022-08-08T05:08:44.233Z,36.13
2022-08-08T05:09:02.772Z,36.00
2022-08-08T05:09:16.514Z,35.95
2022-08-08T05:09:29.757Z,35.88
2022-08-08T05:09:49.491Z,35.92
2022-08-08T05:10:02.344Z,35.94
2022-08-08T05:10:16.825Z,35.98
2022-08-08T05:10:30.010Z,36.06
2022-08-08T05:10:42.985Z,36.09
2022-08-08T05:10:57.492Z,36.16
2022-08-08T05:11:22.554Z,36.17
2022-08-08T05:11:39.342Z,36.14
2022-08-08T05:11:56.588Z,36.13
2022-08-08T05:12:10.374Z,36.18
2022-08-08T05:12:36.794Z,36.09
2022-08-08T05:13:02.227Z,36.08
2022-08-08T05:13:17.863Z,36.18
2022-08-08T05:13:30.920Z,36.29
2022-08-08T05:13:55.005Z,36.34
2022-08-08T05:14:14.790Z,36.54
2022-08-08T05:14:29.240Z,36.76
2022-08-08T05:14:42.375Z,36.83
2022-08-08T05:14:57.570Z,36.66
2022-08-08T05:15:13.712Z,36.64
2022-08-08T05:16:48.231Z,36.57
2022-08-08T05:16:52.825Z,36.44
2022-08-08T05:16:54.507Z,36.49
2022-08-08T05:17:08.852Z,36.32
2022-08-08T05:17:23.862Z,36.37
2022-08-08T05:17:53.379Z,36.25
2022-08-08T05:18:07.521Z,36.22
2022-08-08T05:18:21.070Z,36.15
2022-08-08T05:18:36.991Z,36.11
2022-08-08T05:18:50.777Z,36.06
2022-08-08T05:19:03.656Z,35.98
2022-08-08T05:20:04.166Z,35.95
2022-08-08T05:20:09.655Z,35.93
2022-08-08T05:20:24.483Z,35.98
2022-08-08T05:20:48.443Z,36.00
2022-08-08T05:21:05.760Z,35.91
2022-08-08T05:21:19.372Z,35.83
2022-08-08T05:21:43.625Z,35.81
2022-08-08T05:22:06.845Z,36.00
2022-08-08T05:22:20.080Z,36.02
2022-08-08T05:22:33.068Z,35.94
2022-08-08T05:22:48.184Z,35.92
2022-08-08T05:23:02.111Z,35.92
2022-08-08T05:23:14.980Z,35.88
2022-08-08T05:23:29.986Z,35.84
2022-08-08T05:24:04.423Z,35.83
2022-08-08T05:24:22.475Z,35.88
2022-08-08T05:24:39.219Z,35.80
2022-08-08T05:24:53.402Z,35.86
2022-08-08T05:25:06.675Z,36.05
2022-08-08T05:25:21.616Z,36.14
2022-08-08T05:25:41.439Z,36.18
2022-08-08T05:26:00.228Z,36.27
2022-08-08T05:26:14.261Z,36.14
2022-08-08T05:26:27.522Z,36.03
2022-08-08T05:26:41.684Z,35.97
2022-08-08T05:26:56.969Z,36.13
2022-08-08T05:27:09.815Z,36.21
2022-08-08T05:27:22.832Z,36.19
2022-08-08T05:27:41.302Z,36.20
2022-08-08T05:27:55.125Z,36.25
2022-08-08T05:28:09.309Z,36.20
2022-08-08T05:28:48.431Z,36.13
2022-08-08T05:28:57.437Z,36.09
2022-08-08T05:29:17.953Z,36.09
2022-08-08T05:29:30.789Z,36.23
2022-08-08T05:29:44.052Z,36.33
2022-08-08T05:29:57.612Z,36.40
2022-08-08T05:30:11.912Z,36.51
2022-08-08T05:30:28.513Z,36.33
2022-08-08T05:30:47.378Z,36.35
2022-08-08T05:31:02.042Z,36.31
2022-08-08T05:32:03.371Z,36.22
2022-08-08T05:32:07.416Z,36.31
2022-08-08T05:32:24.786Z,36.31
2022-08-08T05:32:40.929Z,36.35
2022-08-08T05:32:55.264Z,36.50
2022-08-08T05:33:10.786Z,36.51
2022-08-08T05:33:23.855Z,36.64
2022-08-08T05:33:48.356Z,36.55
2022-08-08T05:34:33.114Z,36.62
2022-08-08T05:34:50.839Z,36.79
2022-08-08T05:35:06.789Z,36.82
2022-08-08T05:35:23.525Z,36.65
2022-08-08T05:35:39.717Z,36.49
2022-08-08T05:35:54.414Z,36.71
2022-08-08T05:36:07.602Z,36.84
2022-08-08T05:36:38.138Z,36.85
2022-08-08T05:36:56.495Z,36.67
2022-08-08T05:37:18.774Z,36.64
2022-08-08T05:37:51.814Z,36.56
2022-08-08T05:38:30.129Z,36.68
2022-08-08T05:38:46.667Z,36.61
2022-08-08T05:38:59.648Z,36.64
2022-08-08T05:39:12.556Z,36.64
2022-08-08T05:39:28.600Z,36.74
2022-08-08T05:39:52.653Z,36.76
2022-08-08T05:40:06.591Z,36.67
2022-08-08T05:40:27.944Z,36.59
2022-08-08T05:40:48.896Z,36.59
2022-08-08T05:41:03.736Z,36.57
2022-08-08T05:41:23.214Z,36.59
2022-08-08T05:41:54.931Z,36.64
2022-08-08T05:42:08.600Z,36.81
2022-08-08T05:42:33.911Z,36.80
2022-08-08T05:42:51.771Z,36.74
2022-08-08T05:43:38.414Z,36.70
2022-08-08T05:44:03.637Z,36.67
2022-08-08T05:44:26.662Z,36.60
2022-08-08T05:44:46.249Z,36.74
2022-08-08T05:45:10.371Z,36.63
2022-08-08T05:45:42.916Z,36.63
2022-08-08T05:46:08.104Z,36.66
2022-08-08T05:46:21.363Z,36.67
2022-08-08T05:46:38.040Z,36.75
2022-08-08T05:46:52.664Z,36.78
2022-08-08T05:47:05.752Z,36.86
2022-08-08T05:47:21.152Z,36.95
2022-08-08T05:47:52.594Z,36.95
2022-08-08T05:48:09.714Z,36.90
2022-08-08T05:48:28.600Z,36.86
2022-08-08T05:48:44.169Z,36.71
2022-08-08T05:49:11.043Z,36.68
2022-08-08T05:49:24.320Z,36.67
2022-08-08T05:49:41.143Z,36.64
2022-08-08T05:50:07.907Z,36.78
2022-08-08T05:50:21.043Z,36.59
2022-08-08T05:50:34.025Z,36.68
2022-08-08T05:50:47.344Z,36.53
2022-08-08T05:51:15.176Z,36.44
2022-08-08T05:51:37.477Z,36.60
2022-08-08T05:52:01.803Z,36.67
2022-08-08T05:52:14.687Z,36.66
2022-08-08T05:52:32.149Z,36.61
2022-08-08T05:52:48.528Z,36.63
2022-08-08T05:53:54.722Z,36.56
2022-08-08T05:54:26.049Z,36.49
2022-08-08T05:54:27.676Z,36.62
2022-08-08T05:54:49.747Z,36.57
2022-08-08T05:55:10.797Z,36.47
2022-08-08T05:55:27.213Z,36.35
2022-08-08T05:56:11.656Z,36.44
2022-08-08T05:56:28.655Z,36.48
2022-08-08T05:56:47.599Z,36.58
2022-08-08T05:57:01.160Z,36.64
2022-08-08T05:57:36.688Z,36.63
2022-08-08T05:58:03.948Z,36.59
2022-08-08T05:58:20.165Z,36.37
2022-08-08T05:58:34.810Z,36.43
2022-08-08T05:58:53.799Z,36.53
2022-08-08T05:59:53.548Z,36.62
2022-08-08T06:00:25.054Z,36.78
2022-08-08T06:00:34.044Z,36.55
2022-08-08T06:00:56.907Z,36.56
2022-08-08T06:01:11.731Z,36.55
2022-08-08T06:01:52.481Z,36.50
2022-08-08T06:02:43.526Z,36.46
2022-08-08T06:03:24.888Z,36.49
2022-08-08T06:03:45.139Z,36.65
2022-08-08T06:04:08.504Z,36.66
2022-08-08T06:04:28.354Z,36.55
2022-08-08T06:04:41.325Z,36.63
2022-08-08T06:05:01.506Z,36.66
2022-08-08T06:05:33.615Z,36.75
2022-08-08T06:05:56.675Z,36.86
2022-08-08T06:06:12.400Z,36.86
2022-08-08T06:06:32.448Z,36.76
2022-08-08T06:06:48.238Z,36.68
2022-08-08T06:07:04.047Z,36.51
2022-08-08T06:07:16.912Z,36.52
2022-08-08T06:07:29.962Z,36.50
2022-08-08T06:07:43.983Z,36.49
2022-08-08T06:08:01.880Z,36.50
2022-08-08T06:08:33.265Z,36.49
2022-08-08T06:08:55.206Z,36.57
2022-08-08T06:09:59.012Z,36.76
2022-08-08T06:10:01.119Z,36.78
2022-08-08T06:10:24.547Z,36.75
2022-08-08T06:10:38.425Z,36.65
2022-08-08T06:10:53.932Z,36.60
2022-08-08T06:11:07.386Z,36.52
2022-08-08T06:11:21.283Z,36.41
2022-08-08T06:11:37.093Z,36.40
2022-08-08T06:12:00.553Z,36.42
2022-08-08T06:12:14.314Z,36.35
2022-08-08T06:12:31.772Z,36.29
2022-08-08T06:12:45.828Z,36.26
2022-08-08T06:13:02.396Z,36.30
2022-08-08T06:13:22.010Z,36.33
2022-08-08T06:13:47.519Z,36.44
2022-08-08T06:14:01.201Z,36.46
2022-08-08T06:14:17.999Z,36.44
2022-08-08T06:14:32.129Z,36.40
2022-08-08T06:14:48.909Z,36.39
2022-08-08T06:15:03.801Z,36.38
2022-08-08T06:15:19.069Z,36.32
2022-08-08T06:15:50.575Z,36.32
2022-08-08T06:16:06.798Z,36.36
2022-08-08T06:16:27.434Z,36.35
2022-08-08T06:16:43.412Z,36.36
2022-08-08T06:17:01.604Z,36.36
2022-08-08T06:17:19.443Z,36.31
2022-08-08T06:17:51.453Z,36.32
2022-08-08T06:18:18.426Z,36.32
2022-08-08T06:18:34.274Z,36.35
2022-08-08T06:18:50.276Z,36.25
2022-08-08T06:19:04.209Z,36.18
2022-08-08T06:19:17.353Z,36.09
2022-08-08T06:19:33.378Z,36.05
2022-08-08T06:19:48.399Z,36.00
2022-08-08T06:20:05.413Z,36.04
2022-08-08T06:20:25.774Z,36.06
2022-08-08T06:20:38.967Z,36.20
2022-08-08T06:20:59.555Z,36.22
2022-08-08T06:21:28.573Z,36.25
2022-08-08T06:21:56.638Z,36.20
2022-08-08T06:22:43.469Z,35.99
2022-08-08T06:22:57.861Z,35.85
2022-08-08T06:23:11.433Z,35.83
2022-08-08T06:23:52.908Z,35.70
2022-08-08T06:24:05.215Z,35.60
2022-08-08T06:24:30.286Z,35.78
2022-08-08T06:24:47.030Z,35.92
2022-08-08T06:25:04.658Z,35.98
2022-08-08T06:25:18.379Z,36.01
2022-08-08T06:26:41.423Z,36.09
2022-08-08T06:26:43.229Z,36.13
2022-08-08T06:26:58.177Z,36.12
2022-08-08T06:27:11.146Z,36.11
2022-08-08T06:27:50.603Z,36.13
2022-08-08T06:28:05.878Z,36.22
2022-08-08T06:28:29.449Z,36.03
2022-08-08T06:29:02.448Z,35.99